Time;durP1;ratioP1;P1;durP2;ratioP2;P2;SDS_P1;SDS_P2;PMS_P1;PMS_P2;Temp;Humidity;BMP_temperature;BMP_pressure;BME280_temperature;BME280_humidity;BME280_pressure;Samples;Min_cycle;Max_cycle;Signal;HPM_P1;HPM_P2
2021/04/13 00:00:32;;;;;;;11.30;3.95;;;;;;;3.71;53.55;102247.97;4442276;32;20108;-75
2021/04/13 00:03:02;;;;;;;12.35;4.03;;;;;;;3.68;53.82;102245.88;4426278;32;20059;-75
2021/04/13 00:08:10;;;;;;;7.68;3.05;;;;;;;4.01;52.95;102249.19;3959633;32;15726607;-76
2021/04/13 00:10:47;;;;;;;9.70;3.20;;;;;;;4.01;52.95;102249.19;4436862;32;20118;-74
2021/04/13 00:13:15;;;;;;;9.23;3.22;;;;;;;3.55;53.42;102250.72;4434880;32;20575;-76
2021/04/13 00:15:49;;;;;;;8.35;3.40;;;;;;;3.45;53.69;102251.22;4436615;32;20029;-76
2021/04/13 00:18:18;;;;;;;9.65;3.28;;;;;;;3.42;53.84;102254.72;4438278;32;20433;-76
2021/04/13 00:20:53;;;;;;;9.80;2.80;;;;;;;3.32;54.14;102252.41;4424948;32;20435;-76
2021/04/13 00:23:19;;;;;;;6.43;2.47;;;;;;;3.24;54.28;102245.03;4435217;32;20069;-76
2021/04/13 00:25:51;;;;;;;6.62;2.55;;;;;;;3.21;54.25;102251.31;4435172;32;20095;-74
2021/04/13 00:28:26;;;;;;;11.88;2.53;;;;;;;3.17;54.20;102255.16;4439678;32;20073;-74
2021/04/13 00:30:56;;;;;;;4.97;2.35;;;;;;;3.11;54.15;102246.25;4435414;32;20049;-74
2021/04/13 00:33:26;;;;;;;5.57;2.58;;;;;;;3.09;53.92;102240.22;4433222;32;20112;-75
2021/04/13 00:36:11;;;;;;;9.15;2.12;;;;;;;3.10;53.63;102247.37;4434819;32;20040;-76
2021/04/13 00:43:54;;;;;;;7.12;2.20;;;;;;;3.46;52.89;102243.69;4001002;31;15017671;-75
2021/04/13 00:46:51;;;;;;;10.90;2.83;;;;;;;3.46;52.89;102243.69;4459747;32;20062;-75
2021/04/13 00:49:21;;;;;;;6.80;2.42;;;;;;;3.01;53.64;102246.72;4459613;32;20073;-75
2021/04/13 00:51:51;;;;;;;13.38;5.00;;;;;;;2.96;53.83;102243.37;4459891;32;20045;-74
2021/04/13 00:54:27;;;;;;;7.82;2.53;;;;;;;2.95;53.83;102256.44;4460195;32;20041;-75
2021/04/13 00:56:55;;;;;;;8.45;2.53;;;;;;;2.92;53.98;102248.84;4458485;32;20139;-75
2021/04/13 00:59:22;;;;;;;14.48;2.95;;;;;;;2.83;54.45;102256.50;4459245;32;20037;-75
2021/04/13 01:01:53;;;;;;;6.43;2.53;;;;;;;2.83;54.45;102247.34;4448142;32;20053;-74
2021/04/13 01:04:28;;;;;;;3.20;1.55;;;;;;;2.86;54.66;102253.03;4440329;32;20052;-74
2021/04/13 01:07:00;;;;;;;6.82;2.10;;;;;;;2.86;54.58;102247.47;4428272;32;20500;-75
2021/04/13 01:09:28;;;;;;;3.67;2.00;;;;;;;2.47;55.98;102244.59;4438868;32;20060;-75
2021/04/13 01:12:03;;;;;;;6.87;1.87;;;;;;;2.44;56.18;102236.94;4442848;32;20468;-75
2021/04/13 01:14:31;;;;;;;4.72;1.95;;;;;;;2.42;56.19;102240.06;4440928;32;20491;-75
2021/04/13 01:17:00;;;;;;;5.35;1.80;;;;;;;2.38;56.27;102238.31;4438380;32;20417;-75
2021/04/13 01:19:50;;;;;;;5.05;2.20;;;;;;;2.36;56.44;102233.13;4441199;32;20069;-75
2021/04/13 01:22:28;;;;;;;10.38;2.40;;;;;;;2.28;57.00;102234.06;4444070;32;20101;-76
2021/04/13 01:25:00;;;;;;;10.40;3.15;;;;;;;2.16;57.66;102234.03;4440285;32;20056;-75
2021/04/13 01:27:26;;;;;;;6.53;2.40;;;;;;;2.15;57.95;102237.16;4443392;32;20029;-75
2021/04/13 01:29:54;;;;;;;4.82;1.90;;;;;;;2.03;58.34;102240.75;4440289;32;20029;-75
2021/04/13 01:32:22;;;;;;;7.65;2.83;;;;;;;2.04;58.21;102237.63;4438235;32;20390;-76
2021/04/13 01:35:01;;;;;;;8.85;2.30;;;;;;;1.95;58.58;102242.47;4442292;32;20045;-75
2021/04/13 01:40:26;;;;;;;5.43;2.47;;;;;;;2.39;58.26;102245.53;3999172;31;15018975;-75
2021/04/13 01:42:53;;;;;;;5.20;2.17;;;;;;;2.39;58.26;102245.53;4456787;32;20048;-74
2021/04/13 01:45:24;;;;;;;6.93;2.75;;;;;;;2.02;58.81;102244.66;4459122;32;20068;-74
2021/04/13 01:47:52;;;;;;;6.90;3.12;;;;;;;2.01;58.75;102238.31;4456936;32;20104;-74
2021/04/13 01:50:21;;;;;;;6.75;2.50;;;;;;;1.90;59.26;102242.69;4458332;32;20101;-75
2021/04/13 01:52:49;;;;;;;5.30;2.35;;;;;;;1.83;59.57;102231.34;4458058;32;20060;-74
2021/04/13 01:58:01;;;;;;;6.78;2.90;;;;;;;2.18;59.75;102242.84;3984558;32;15026663;-75
2021/04/13 02:03:10;;;;;;;8.10;3.45;;;;;;;2.20;59.38;102253.63;3985989;32;15024974;-74
2021/04/13 02:05:39;;;;;;;6.28;3.10;;;;;;;2.20;59.38;102253.63;4435896;32;20378;-74
2021/04/13 02:08:15;;;;;;;10.23;3.70;;;;;;;1.71;60.64;102236.03;4438842;32;20748;-74
2021/04/13 02:10:48;;;;;;;7.70;3.28;;;;;;;1.67;60.76;102240.66;4438377;32;20064;-74
2021/04/13 02:18:50;;;;;;;8.82;3.30;;;;;;;2.23;59.99;102250.94;3985893;32;15025557;-75
2021/04/13 02:24:03;;;;;;;11.80;2.72;;;;;;;2.17;60.22;102245.97;3988103;32;15024316;-74
2021/04/13 02:26:30;;;;;;;8.68;2.60;;;;;;;2.17;60.22;102245.97;4442634;32;20825;-75
2021/04/13 02:28:57;;;;;;;5.50;2.35;;;;;;;1.69;61.13;102241.13;4441166;32;20069;-75
2021/04/13 02:31:58;;;;;;;5.95;2.12;;;;;;;1.69;60.92;102241.13;4444350;32;20029;-75
2021/04/13 02:36:54;;;;;;;5.15;2.28;;;;;;;2.08;60.41;102248.03;3952900;31;15712420;-74
2021/04/13 02:39:25;;;;;;;6.57;2.58;;;;;;;2.08;60.41;102248.03;4419491;32;20029;-74
2021/04/13 02:42:00;;;;;;;8.27;2.90;;;;;;;1.90;60.08;102241.84;4407009;32;20358;-74
2021/04/13 02:44:26;;;;;;;9.38;2.50;;;;;;;1.59;61.41;102249.84;4419329;32;20452;-74
2021/04/13 02:46:56;;;;;;;4.82;2.33;;;;;;;1.57;61.53;102249.41;4422519;32;20152;-74
2021/04/13 02:49:23;;;;;;;3.97;2.10;;;;;;;1.58;61.56;102239.91;4423100;32;20037;-74
2021/04/13 02:51:56;;;;;;;12.48;2.95;;;;;;;1.52;61.68;102238.50;4419105;32;20069;-74
2021/04/13 02:54:27;;;;;;;7.93;2.33;;;;;;;1.58;61.56;102251.03;4417997;32;20042;-74
2021/04/13 02:57:00;;;;;;;11.23;2.70;;;;;;;1.60;61.42;102237.63;4417818;32;20410;-74
2021/04/13 02:59:30;;;;;;;6.22;2.40;;;;;;;1.56;61.55;102237.50;4404711;32;20068;-74
2021/04/13 03:02:21;;;;;;;7.45;2.28;;;;;;;1.51;61.81;102245.22;4419941;32;20420;-75
2021/04/13 03:04:51;;;;;;;8.40;2.25;;;;;;;1.49;61.97;102237.25;4426245;32;20458;-75
2021/04/13 03:07:21;;;;;;;8.30;2.80;;;;;;;1.50;61.93;102236.09;4421986;32;20038;-74
2021/04/13 03:09:53;;;;;;;3.83;1.70;;;;;;;1.44;62.36;102231.91;4405613;32;20086;-74
2021/04/13 03:12:20;;;;;;;6.47;1.90;;;;;;;1.45;62.66;102232.72;4423564;32;20063;-74
2021/04/13 03:14:55;;;;;;;5.95;1.70;;;;;;;1.49;62.55;102231.69;4419500;32;20046;-74
2021/04/13 03:17:25;;;;;;;8.60;1.70;;;;;;;1.57;62.24;102224.44;4415049;32;20119;-74
2021/04/13 03:19:58;;;;;;;5.07;1.70;;;;;;;1.60;62.29;102235.66;4420264;32;20109;-74
2021/04/13 03:22:25;;;;;;;5.55;1.70;;;;;;;1.58;62.39;102234.38;4418020;32;20046;-75
2021/04/13 03:24:52;;;;;;;5.28;1.50;;;;;;;1.52;62.86;102232.97;4421310;32;20845;-74
2021/04/13 03:27:22;;;;;;;4.30;1.60;;;;;;;1.79;62.27;102224.84;4420002;32;21687;-74
2021/04/13 03:32:27;;;;;;;6.50;1.70;;;;;;;2.03;62.54;102235.97;3958520;32;15724495;-75
2021/04/13 03:34:53;;;;;;;4.70;1.85;;;;;;;2.03;62.54;102235.97;4436410;32;20094;-76
2021/04/13 03:37:20;;;;;;;8.80;2.37;;;;;;;1.55;63.54;102223.97;4438544;32;20386;-76
2021/04/13 03:39:47;;;;;;;6.43;1.70;;;;;;;1.58;63.33;102223.28;4437201;32;20542;-76
2021/04/13 03:42:19;;;;;;;6.50;2.03;;;;;;;1.87;62.83;102221.16;4437096;32;20134;-76
2021/04/13 03:44:45;;;;;;;5.90;1.85;;;;;;;1.63;63.39;102223.84;4435204;32;20569;-76
2021/04/13 03:47:14;;;;;;;4.10;1.58;;;;;;;1.57;63.78;102216.13;4441616;32;20371;-76
2021/04/13 03:49:42;;;;;;;3.78;1.73;;;;;;;1.58;63.79;102218.53;4437319;32;20471;-77
2021/04/13 03:52:17;;;;;;;3.60;1.83;;;;;;;1.59;63.85;102219.34;4437649;32;20457;-75
2021/04/13 03:54:43;;;;;;;5.05;1.90;;;;;;;1.59;63.87;102213.78;4437525;32;20029;-75
2021/04/13 03:57:09;;;;;;;3.30;1.58;;;;;;;1.59;63.91;102220.16;4433714;32;20048;-75
2021/04/13 03:59:39;;;;;;;9.80;2.10;;;;;;;1.61;64.02;102217.03;4438414;32;20055;-75
2021/04/13 04:02:07;;;;;;;4.80;1.77;;;;;;;1.58;64.46;102221.31;4428727;32;20513;-75
2021/04/13 04:04:36;;;;;;;6.55;2.03;;;;;;;1.53;64.58;102221.53;4409031;32;20034;-75
2021/04/13 04:07:27;;;;;;;4.75;1.70;;;;;;;1.53;64.85;102231.81;4425033;32;20055;-75
2021/04/13 04:09:53;;;;;;;7.95;1.90;;;;;;;1.58;64.60;102228.81;4427217;32;20582;-75
2021/04/13 04:17:35;;;;;;;8.88;2.20;;;;;;;1.98;63.92;102230.69;3991190;32;15022581;-73
2021/04/13 04:22:50;;;;;;;9.55;1.98;;;;;;;1.60;64.55;102232.09;3984998;32;15024154;-74
2021/04/13 04:25:30;;;;;;;5.65;1.75;;;;;;;1.55;64.43;102229.50;4443304;32;20088;-74
2021/04/13 04:27:59;;;;;;;8.98;1.95;;;;;;;1.48;64.93;102235.59;4440353;32;20304;-74
2021/04/13 04:30:29;;;;;;;6.57;1.40;;;;;;;1.48;65.41;102237.59;4443445;32;20064;-74
2021/04/13 04:32:57;;;;;;;6.12;1.40;;;;;;;1.55;65.16;102243.37;4443551;32;20100;-77
2021/04/13 04:35:44;;;;;;;4.20;1.17;;;;;;;1.51;65.42;102240.47;4444452;32;20072;-74
2021/04/13 04:43:55;;;;;;;12.40;1.83;;;;;;;1.88;65.04;102244.19;4009722;31;15035643;-75
2021/04/13 04:46:42;;;;;;;6.22;1.48;;;;;;;1.88;65.04;102244.19;4467889;32;20091;-76
2021/04/13 04:49:11;;;;;;;7.25;1.65;;;;;;;1.65;65.41;102241.00;4470474;32;20045;-76
2021/04/13 04:51:37;;;;;;;3.70;1.40;;;;;;;1.40;66.33;102232.91;4467640;32;20480;-76
2021/04/13 04:54:04;;;;;;;9.40;1.67;;;;;;;1.41;66.09;102243.66;4466050;32;20050;-76
2021/04/13 04:56:30;;;;;;;6.05;2.37;;;;;;;1.41;66.17;102240.09;4471893;32;20539;-76
2021/04/13 04:58:56;;;;;;;4.12;2.55;;;;;;;1.33;66.37;102239.03;4471899;32;20068;-76
2021/04/13 05:01:21;;;;;;;6.72;2.60;;;;;;;1.34;66.51;102237.03;4461205;32;20466;-76
2021/04/13 05:03:47;;;;;;;10.02;2.80;;;;;;;1.35;66.79;102242.25;4454813;32;20467;-75
2021/04/13 05:06:14;;;;;;;18.58;3.72;;;;;;;1.34;66.94;102234.28;4456375;32;20075;-76
2021/04/13 05:08:39;;;;;;;7.37;3.05;;;;;;;1.36;67.13;102238.34;4453024;32;20025;-76
2021/04/13 05:11:06;;;;;;;16.83;3.37;;;;;;;1.36;67.09;102238.34;4453759;32;20029;-76
2021/04/13 05:13:32;;;;;;;12.93;2.80;;;;;;;1.38;67.28;102244.34;4452355;32;20044;-76
2021/04/13 05:15:59;;;;;;;8.43;2.20;;;;;;;1.37;67.63;102239.97;4453583;32;20064;-76
2021/04/13 05:18:25;;;;;;;6.20;2.17;;;;;;;1.36;67.71;102245.84;4453525;32;20072;-76
2021/04/13 05:20:52;;;;;;;24.58;4.90;;;;;;;1.32;67.71;102250.47;4454617;32;20029;-76
2021/04/13 05:23:18;;;;;;;7.85;1.85;;;;;;;1.31;67.99;102248.81;4452579;32;20051;-76
2021/04/13 05:25:43;;;;;;;13.30;2.47;;;;;;;1.32;68.09;102256.00;4451928;32;20044;-76
2021/04/13 05:28:10;;;;;;;13.43;2.30;;;;;;;1.36;67.74;102246.69;4449736;32;20529;-75
2021/04/13 05:30:36;;;;;;;7.87;2.90;;;;;;;1.43;67.56;102255.25;4443740;32;20353;-76
2021/04/13 05:33:02;;;;;;;4.85;1.95;;;;;;;1.44;67.74;102256.06;4452187;32;21150;-76
2021/04/13 05:35:29;;;;;;;7.32;1.98;;;;;;;1.67;67.30;102269.22;4438814;32;20144;-76
2021/04/13 05:37:57;;;;;;;10.68;2.30;;;;;;;1.54;67.54;102267.53;4453760;32;20125;-76
2021/04/13 05:40:29;;;;;;;5.10;2.12;;;;;;;1.64;67.02;102261.56;4452858;32;20110;-76
2021/04/13 05:42:56;;;;;;;8.90;1.77;;;;;;;1.73;67.23;102276.19;4449631;32;20108;-76
2021/04/13 05:45:24;;;;;;;10.55;2.22;;;;;;;1.79;67.31;102268.44;4449760;32;20082;-76
2021/04/13 05:47:50;;;;;;;9.32;2.10;;;;;;;1.93;67.15;102266.97;4440444;32;20670;-76
2021/04/13 05:50:28;;;;;;;12.50;2.37;;;;;;;2.06;66.67;102276.94;4441598;32;20155;-76
2021/04/13 05:52:54;;;;;;;7.97;2.60;;;;;;;2.12;66.53;102278.34;4438184;32;20123;-76
2021/04/13 05:55:21;;;;;;;10.20;3.00;;;;;;;2.20;66.28;102273.06;4442222;32;20104;-76
2021/04/13 05:57:49;;;;;;;27.58;3.75;;;;;;;2.25;66.46;102275.59;4443110;32;20469;-76
2021/04/13 06:00:17;;;;;;;10.13;2.70;;;;;;;2.29;66.59;102284.84;4439229;32;20123;-76
2021/04/13 06:02:43;;;;;;;9.63;2.67;;;;;;;2.40;66.71;102272.12;4440740;32;20477;-76
2021/04/13 06:05:11;;;;;;;8.50;2.67;;;;;;;2.50;66.57;102282.78;4433387;32;20084;-76
2021/04/13 06:07:37;;;;;;;6.97;2.20;;;;;;;2.63;66.09;102281.63;4440754;32;20034;-76
2021/04/13 06:10:05;;;;;;;9.57;2.65;;;;;;;2.72;65.94;102287.87;4438669;32;20081;-76
2021/04/13 06:12:31;;;;;;;10.48;2.55;;;;;;;2.81;65.70;102289.41;4438988;32;20152;-76
2021/04/13 06:14:57;;;;;;;12.32;2.83;;;;;;;2.82;65.52;102296.56;4440119;32;20025;-76
2021/04/13 06:17:23;;;;;;;10.73;2.92;;;;;;;2.95;65.31;102295.38;4444638;32;20105;-76
2021/04/13 06:19:49;;;;;;;9.60;3.72;;;;;;;3.08;64.73;102299.78;4441830;32;20077;-76
2021/04/13 06:22:16;;;;;;;9.00;3.50;;;;;;;3.26;64.67;102303.12;4438896;32;20105;-76
2021/04/13 06:24:42;;;;;;;9.80;3.58;;;;;;;3.24;65.12;102306.25;4430757;32;20049;-76
2021/04/13 06:27:09;;;;;;;16.40;3.10;;;;;;;3.36;65.08;102313.75;4438876;32;20103;-76
2021/04/13 06:29:38;;;;;;;20.70;3.50;;;;;;;3.50;64.67;102300.28;4440479;32;20041;-76
2021/04/13 06:32:05;;;;;;;17.80;3.40;;;;;;;3.61;64.26;102301.37;4439735;32;20097;-76
2021/04/13 06:34:31;;;;;;;16.87;3.00;;;;;;;3.75;63.77;102307.38;4439499;32;20036;-76
2021/04/13 06:36:57;;;;;;;12.73;6.70;;;;;;;3.89;63.11;102303.00;4437953;32;20392;-77
2021/04/13 06:39:24;;;;;;;12.73;4.95;;;;;;;4.02;62.97;102306.53;4430875;32;20218;-77
2021/04/13 07:12:01;;;;;;;12.73;4.20;;;;;;;6.58;58.08;102320.72;3985676;32;15021558;-77
2021/04/13 07:14:34;;;;;;;18.62;3.95;;;;;;;6.58;58.08;102320.72;4443392;32;20359;-76
2021/04/13 07:17:11;;;;;;;14.85;4.85;;;;;;;6.26;58.45;102316.53;4441905;32;20056;-76
2021/04/13 07:22:44;;;;;;;19.50;3.97;;;;;;;7.23;56.52;102332.56;3983346;32;15023215;-75
2021/04/13 07:25:17;;;;;;;24.67;5.22;;;;;;;7.23;56.52;102332.56;4445298;32;20060;-76
2021/04/13 07:30:34;;;;;;;8.85;2.80;;;;;;;7.90;55.60;102345.50;3989375;32;15023044;-76
2021/04/13 07:33:03;;;;;;;11.02;3.20;;;;;;;7.90;55.60;102345.50;4437449;32;20067;-75
2021/04/13 07:35:31;;;;;;;15.82;4.30;;;;;;;7.67;55.75;102330.81;4437433;32;20081;-74
2021/04/13 07:38:01;;;;;;;14.70;3.30;;;;;;;7.76;55.61;102334.09;4435957;32;20158;-75
2021/04/13 07:40:33;;;;;;;15.40;3.85;;;;;;;8.31;54.21;102338.00;4438032;32;20050;-75
2021/04/13 07:46:24;;;;;;;22.90;5.17;;;;;;;8.62;53.18;102329.09;4008169;31;15019865;-75
2021/04/13 07:51:45;;;;;;;22.08;4.22;;;;;;;9.50;51.06;102319.31;3985559;32;15024284;-77
2021/04/13 07:57:01;;;;;;;16.95;4.22;;;;;;;9.96;50.04;102318.31;3986709;32;15021655;-76
2021/04/13 08:02:10;;;;;;;9.00;2.33;;;;;;;10.20;47.51;102318.81;3986427;32;15022273;-75
2021/04/13 08:04:36;;;;;;;12.95;2.33;;;;;;;10.20;47.51;102318.81;4441694;32;20097;-75
2021/04/13 08:12:31;;;;;;;8.38;2.22;;;;;;;10.46;46.32;102321.31;4003325;31;15018958;-74
2021/04/13 08:17:50;;;;;;;4.45;1.48;;;;;;;10.80;43.39;102322.53;3986899;32;15036049;-76
2021/04/13 08:20:26;;;;;;;12.88;2.22;;;;;;;10.80;43.39;102322.53;4437035;32;20061;-75
2021/04/13 08:22:57;;;;;;;3.90;1.08;;;;;;;10.58;43.29;102315.28;4439717;32;20041;-75
2021/04/13 08:25:44;;;;;;;7.65;1.60;;;;;;;10.82;41.82;102326.56;4442513;32;20487;-75
2021/04/13 08:28:20;;;;;;;10.07;1.95;;;;;;;11.08;42.16;102326.13;4437367;32;20453;-75
2021/04/13 08:36:54;;;;;;;9.77;1.65;;;;;;;12.89;36.05;102330.59;3957790;32;15727531;-79
2021/04/13 08:42:25;;;;;;;6.20;2.35;;;;;;;13.00;35.68;102334.94;4002443;31;15019248;-75
2021/04/13 08:53:06;;;;;;;3.33;1.12;;;;;;;14.92;30.01;102347.12;3983848;32;15022835;-74
2021/04/13 09:00:51;;;;;;;14.07;1.55;;;;;;;15.10;30.40;102344.81;3981286;32;15033104;-75
2021/04/13 09:03:21;;;;;;;2.72;0.90;;;;;;;15.10;30.40;102344.81;4434326;32;20107;-75
2021/04/13 09:06:06;;;;;;;3.45;1.10;;;;;;;15.02;30.24;102338.44;4435754;32;20045;-75
2021/04/13 09:11:23;;;;;;;4.18;1.37;;;;;;;16.12;29.61;102346.50;3956386;32;15724651;-75
2021/04/13 09:14:08;;;;;;;5.90;1.67;;;;;;;16.12;29.61;102346.50;4438234;32;20045;-75
2021/04/13 09:16:39;;;;;;;9.10;1.42;;;;;;;16.05;30.15;102343.00;4438773;32;20021;-75
2021/04/13 09:19:17;;;;;;;5.87;1.65;;;;;;;16.32;29.68;102350.09;4435002;32;20114;-76
2021/04/13 09:21:47;;;;;;;14.13;2.53;;;;;;;16.46;29.61;102341.28;4418508;32;20066;-75
2021/04/13 09:27:04;;;;;;;10.75;2.50;;;;;;;17.50;28.55;102350.50;3986193;32;15021320;-75
2021/04/13 09:40:44;;;;;;;5.50;1.77;;;;;;;17.16;28.03;102356.66;3957288;32;15723475;-75
2021/04/13 09:43:36;;;;;;;5.50;1.45;;;;;;;17.16;28.03;102356.66;4438439;32;20038;-75
2021/04/13 09:49:13;;;;;;;9.18;2.12;;;;;;;17.68;27.48;102365.03;3975247;32;15033496;-75
2021/04/13 09:51:56;;;;;;;2.90;1.70;;;;;;;17.68;27.48;102365.03;4427835;32;20616;-75
2021/04/13 09:54:44;;;;;;;11.15;1.50;;;;;;;17.59;27.38;102368.53;4426786;32;20305;-75
2021/04/13 10:00:11;;;;;;;3.72;1.40;;;;;;;18.45;25.18;102359.13;4005107;31;15017049;-75
2021/04/13 10:03:06;;;;;;;9.00;1.40;;;;;;;18.45;25.18;102359.13;4466942;32;20527;-76
2021/04/13 10:05:36;;;;;;;4.68;1.35;;;;;;;18.34;25.21;102355.78;4465300;32;20101;-76
2021/04/13 10:14:21;;;;;;;8.15;1.92;;;;;;;18.23;25.62;102356.13;3983676;32;15025170;-75
2021/04/13 10:39:47;;;;;;;5.50;2.00;;;;;;;19.50;23.13;102335.66;3986565;32;15022307;-76
2021/04/13 10:45:51;;;;;;;11.82;2.72;;;;;;;20.66;22.31;102343.47;3990841;32;15022130;-75
2021/04/13 10:51:27;;;;;;;5.72;1.95;;;;;;;21.90;21.11;102351.25;3985686;32;15022201;-75
2021/04/13 10:57:21;;;;;;;9.95;1.55;;;;;;;22.77;20.60;102345.50;3990712;32;15022585;-75
2021/04/13 11:24:30;;;;;;;9.98;2.05;;;;;;;22.38;19.49;102345.37;3985907;32;15042842;-77
2021/04/13 11:27:29;;;;;;;4.68;1.80;;;;;;;22.39;19.53;102339.50;4437087;32;20128;-76
2021/04/13 11:33:08;;;;;;;3.03;1.30;;;;;;;23.94;16.91;102330.34;3982247;32;15021586;-74
2021/04/13 11:43:36;;;;;;;4.40;1.33;;;;;;;24.06;17.21;102343.66;3986095;32;15024211;-76
2021/04/13 11:49:02;;;;;;;8.25;1.87;;;;;;;23.81;17.26;102335.56;3958099;32;15725665;-75
2021/04/13 11:54:44;;;;;;;7.68;1.55;;;;;;;22.57;18.59;102330.88;3985928;32;15021904;-76
2021/04/13 12:03:00;;;;;;;11.88;2.10;;;;;;;22.71;18.50;102333.06;3981875;32;15021307;-74
2021/04/13 12:05:40;;;;;;;10.00;1.73;;;;;;;22.71;18.50;102333.06;4436530;32;20390;-75
2021/04/13 12:08:07;;;;;;;4.15;1.40;;;;;;;22.22;18.56;102330.50;4439279;32;20500;-75
2021/04/13 12:14:35;;;;;;;4.10;1.50;;;;;;;22.14;18.57;102326.38;4435108;32;20053;-75
2021/04/13 12:20:42;;;;;;;4.68;1.35;;;;;;;21.65;19.13;102325.75;4434255;32;20060;-75
2021/04/13 12:31:23;;;;;;;8.50;1.33;;;;;;;20.88;19.90;102309.84;3986313;32;15035702;-76
2021/04/13 12:34:01;;;;;;;4.03;1.20;;;;;;;20.88;19.90;102309.84;4441255;32;20068;-75
2021/04/13 12:36:50;;;;;;;3.60;1.15;;;;;;;20.34;20.33;102321.06;4440813;32;20077;-76
2021/04/13 12:39:41;;;;;;;2.58;1.42;;;;;;;19.94;20.85;102323.00;4442170;32;20019;-76
2021/04/13 12:42:25;;;;;;;4.15;1.00;;;;;;;19.62;21.22;102323.38;4441384;32;20034;-76
2021/04/13 12:45:27;;;;;;;7.62;1.30;;;;;;;19.49;21.31;102314.84;4441231;32;20073;-76
2021/04/13 12:48:00;;;;;;;7.50;1.30;;;;;;;19.34;21.64;102321.56;4440388;32;20200;-76
2021/04/13 12:50:31;;;;;;;7.50;2.50;;;;;;;19.18;21.83;102313.12;4441360;32;20052;-75
2021/04/13 12:52:59;;;;;;;2.22;1.10;;;;;;;18.88;22.02;102320.25;4438980;32;20084;-77
2021/04/13 12:55:26;;;;;;;3.53;1.37;;;;;;;18.32;22.54;102324.09;4442794;32;20421;-76
2021/04/13 12:57:58;;;;;;;6.37;1.65;;;;;;;17.86;23.22;102314.09;4439934;32;20048;-76
2021/04/13 13:00:31;;;;;;;4.43;1.60;;;;;;;17.41;24.10;102316.94;4438067;32;20080;-76
2021/04/13 13:05:51;;;;;;;5.90;1.55;;;;;;;17.10;25.03;102318.59;4000019;31;15015118;-75
2021/04/13 13:08:21;;;;;;;6.07;1.73;;;;;;;17.10;25.03;102318.59;4457612;32;20459;-74
2021/04/13 13:10:51;;;;;;;4.47;1.80;;;;;;;16.69;25.56;102321.25;4457030;32;20045;-76
2021/04/13 13:13:27;;;;;;;2.87;1.58;;;;;;;16.63;25.58;102319.38;4443399;32;20025;-75
2021/04/13 13:15:55;;;;;;;11.48;2.28;;;;;;;16.51;26.53;102303.03;4457459;32;20032;-75
2021/04/13 13:18:35;;;;;;;2.08;1.40;;;;;;;16.55;26.85;102321.59;4456306;32;20090;-75
2021/04/13 13:29:02;;;;;;;5.50;1.70;;;;;;;17.33;26.24;102315.53;4003404;31;15020122;-75
2021/04/13 13:31:32;;;;;;;2.95;1.20;;;;;;;17.33;26.24;102315.53;4457133;32;20077;-75
2021/04/13 13:34:05;;;;;;;7.03;1.23;;;;;;;16.92;26.39;102317.44;4461637;32;20037;-76
2021/04/13 13:36:33;;;;;;;6.65;1.70;;;;;;;17.04;26.62;102320.38;4464519;32;20154;-77
2021/04/13 13:39:05;;;;;;;6.28;1.83;;;;;;;16.76;27.24;102314.59;4463857;32;20045;-76
2021/04/13 13:41:32;;;;;;;4.25;1.33;;;;;;;16.98;27.18;102318.50;4462120;32;20086;-75
2021/04/13 13:43:58;;;;;;;8.55;1.35;;;;;;;16.99;26.69;102311.56;4443531;32;20433;-76
2021/04/13 13:46:29;;;;;;;8.85;1.90;;;;;;;17.04;26.85;102308.19;4458110;32;20484;-76
2021/04/13 13:49:13;;;;;;;2.15;1.10;;;;;;;17.05;27.07;102315.47;4453795;32;20065;-76
2021/04/13 13:51:39;;;;;;;7.40;1.50;;;;;;;16.82;27.49;102307.13;4462024;32;20130;-75
2021/04/13 13:54:23;;;;;;;4.30;1.65;;;;;;;16.61;28.15;102302.78;4455445;32;20025;-76
2021/04/13 13:56:50;;;;;;;8.52;2.28;;;;;;;16.61;28.32;102310.50;4461254;32;20033;-77
2021/04/13 14:02:17;;;;;;;4.87;1.65;;;;;;;16.35;29.61;102308.66;3976336;32;15022239;-77
2021/04/13 14:04:43;;;;;;;5.82;2.30;;;;;;;16.35;29.61;102308.66;4435388;32;20490;-76
2021/04/13 14:07:11;;;;;;;3.42;1.50;;;;;;;15.71;30.38;102307.19;4434572;32;20068;-76
2021/04/13 14:09:38;;;;;;;6.82;1.70;;;;;;;15.52;30.85;102302.28;4427924;32;20442;-76
2021/04/13 14:12:25;;;;;;;4.43;1.65;;;;;;;15.12;31.54;102308.28;4431995;32;20050;-77
2021/04/13 14:14:51;;;;;;;6.20;1.87;;;;;;;14.83;32.18;102299.50;4435088;32;20125;-77
2021/04/13 14:17:17;;;;;;;7.97;1.65;;;;;;;14.69;32.61;102301.72;4435034;32;20100;-75
2021/04/13 14:19:43;;;;;;;5.22;1.25;;;;;;;14.53;33.53;102298.75;4430595;32;20042;-76
2021/04/13 14:25:22;;;;;;;8.02;1.50;;;;;;;14.73;34.12;102303.28;3983644;32;15037210;-75
2021/04/13 14:28:06;;;;;;;3.97;1.60;;;;;;;14.73;34.12;102303.28;4439989;32;20061;-74
2021/04/13 14:30:32;;;;;;;3.80;1.63;;;;;;;14.02;35.99;102302.69;4440577;32;20538;-76
2021/04/13 14:32:58;;;;;;;5.50;1.90;;;;;;;14.01;36.18;102292.62;4440098;32;20309;-76
2021/04/13 14:35:24;;;;;;;5.18;1.40;;;;;;;14.20;36.38;102296.81;4438096;32;20062;-75
2021/04/13 14:37:49;;;;;;;6.45;2.05;;;;;;;14.22;36.87;102295.16;4441948;32;20097;-75
2021/04/13 14:40:21;;;;;;;2.08;1.17;;;;;;;13.99;36.90;102301.53;4440016;32;20210;-75
2021/04/13 14:42:48;;;;;;;7.00;1.85;;;;;;;14.12;35.08;102296.09;4440842;32;20081;-75
2021/04/13 14:45:16;;;;;;;3.85;1.30;;;;;;;14.14;35.63;102295.69;4445038;32;20026;-76
2021/04/13 14:47:42;;;;;;;6.00;1.67;;;;;;;14.33;35.17;102295.03;4442921;32;20087;-77
2021/04/13 14:50:13;;;;;;;5.28;1.42;;;;;;;14.35;34.83;102295.38;4440019;32;20096;-75
2021/04/13 14:52:41;;;;;;;3.62;1.30;;;;;;;14.51;34.89;102278.56;4440019;32;20041;-76
2021/04/13 14:55:09;;;;;;;6.03;1.50;;;;;;;14.78;34.43;102285.00;4441407;32;20022;-76
2021/04/13 14:57:35;;;;;;;6.35;1.50;;;;;;;15.09;33.87;102292.13;4439006;32;20034;-77
2021/04/13 15:00:02;;;;;;;6.47;3.08;;;;;;;15.36;33.99;102285.16;4440683;32;20062;-76
2021/04/13 15:02:30;;;;;;;5.60;1.50;;;;;;;15.76;32.87;102286.00;4429985;32;20029;-76
2021/04/13 15:04:55;;;;;;;2.40;1.40;;;;;;;16.11;32.30;102285.25;4434984;32;20101;-76
2021/04/13 15:07:21;;;;;;;6.00;1.75;;;;;;;16.73;30.81;102293.53;4431172;32;20060;-76
2021/04/13 15:09:47;;;;;;;5.87;1.77;;;;;;;17.14;30.17;102290.03;4433213;32;20029;-76
2021/04/13 15:12:17;;;;;;;2.60;1.27;;;;;;;17.68;29.55;102283.25;4429159;32;20122;-76
2021/04/13 15:14:43;;;;;;;2.03;1.20;;;;;;;18.08;28.11;102280.06;4430864;32;20148;-76
2021/04/13 15:17:12;;;;;;;8.18;1.55;;;;;;;17.87;28.08;102287.19;4432496;32;20063;-76
2021/04/13 15:19:39;;;;;;;9.07;2.20;;;;;;;18.34;27.62;102282.47;4430339;32;20081;-76
2021/04/13 15:22:05;;;;;;;3.83;1.30;;;;;;;19.13;26.96;102277.41;4430349;32;20064;-76
2021/04/13 15:24:30;;;;;;;4.18;1.62;;;;;;;19.54;26.31;102282.88;4430455;32;20374;-76
2021/04/13 15:26:58;;;;;;;4.68;1.50;;;;;;;19.78;25.82;102275.44;4430195;32;20057;-75
2021/04/13 15:29:26;;;;;;;5.80;1.95;;;;;;;20.27;25.32;102272.75;4429036;32;20117;-76
2021/04/13 15:32:01;;;;;;;8.23;1.52;;;;;;;20.85;24.46;102273.59;4430216;32;20542;-75
2021/04/13 15:37:10;;;;;;;7.25;1.75;;;;;;;23.04;22.05;102271.47;3959243;32;15724496;-76
2021/04/13 15:39:35;;;;;;;3.10;1.50;;;;;;;23.04;22.05;102271.47;4438201;32;20044;-76
2021/04/13 15:42:05;;;;;;;2.87;1.40;;;;;;;23.02;21.82;102268.31;4434976;32;20472;-76
2021/04/13 15:44:45;;;;;;;2.80;1.80;;;;;;;24.06;20.86;102262.31;4438808;32;20358;-75
2021/04/13 15:47:14;;;;;;;4.32;2.12;;;;;;;25.00;19.87;102261.75;4435931;32;20089;-75
2021/04/13 15:49:40;;;;;;;8.43;2.22;;;;;;;25.21;19.51;102269.91;4424927;32;20482;-76
2021/04/13 15:52:07;;;;;;;5.45;2.37;;;;;;;25.62;19.18;102264.13;4422602;32;20034;-76
2021/04/13 15:54:34;;;;;;;5.12;1.75;;;;;;;27.32;17.94;102263.94;4436234;32;20115;-77
2021/04/13 15:57:01;;;;;;;6.87;2.35;;;;;;;28.44;16.90;102273.91;4436006;32;20533;-77
2021/04/13 15:59:28;;;;;;;2.80;1.90;;;;;;;30.39;15.36;102267.59;4438055;32;20075;-77
2021/04/13 16:01:56;;;;;;;8.80;1.83;;;;;;;31.45;14.44;102279.72;4434851;32;20093;-77
2021/04/13 16:04:23;;;;;;;2.37;1.67;;;;;;;31.91;14.00;102273.50;4440663;32;20093;-77
2021/04/13 16:06:48;;;;;;;4.15;1.50;;;;;;;32.76;13.44;102280.34;4437770;32;20033;-77